Time;durP1;ratioP1;P1;durP2;ratioP2;P2;SDS_P1;SDS_P2;PMS_P1;PMS_P2;Temp;Humidity;BMP_temperature;BMP_pressure;BME280_temperature;BME280_humidity;BME280_pressure;Samples;Min_cycle;Max_cycle;Signal;HPM_P1;HPM_P2
2021/05/21 00:00:25;;;;;;;1.30;0.82;;;;;;;13.03;50.76;100727.06;5014102;28;20036;-69
2021/05/21 00:02:51;;;;;;;2.45;0.90;;;;;;;13.10;50.36;100727.25;5013801;28;20491;-70
2021/05/21 00:05:16;;;;;;;0.70;0.70;;;;;;;13.16;50.03;100726.94;5013982;28;20034;-69
2021/05/21 00:07:42;;;;;;;0.80;0.80;;;;;;;13.07;50.18;100741.13;5013888;28;20026;-69
2021/05/21 00:10:08;;;;;;;0.65;0.65;;;;;;;13.10;49.62;100732.00;5014132;28;20038;-69
2021/05/21 00:12:34;;;;;;;0.73;0.73;;;;;;;13.16;49.30;100729.75;5007551;28;20022;-70
2021/05/21 00:14:59;;;;;;;0.70;0.70;;;;;;;13.18;50.25;100732.97;5013827;28;20041;-69
2021/05/21 00:17:25;;;;;;;0.80;0.80;;;;;;;13.15;49.32;100742.88;5013696;28;20021;-69
2021/05/21 00:19:51;;;;;;;1.95;0.90;;;;;;;12.99;49.48;100731.75;5013779;28;20068;-69
2021/05/21 00:22:19;;;;;;;0.90;0.90;;;;;;;12.88;49.64;100730.72;5013710;28;20037;-69
2021/05/21 00:24:45;;;;;;;1.67;0.88;;;;;;;12.84;48.45;100730.66;5013449;28;20060;-70
2021/05/21 00:27:10;;;;;;;2.35;0.85;;;;;;;12.94;45.59;100729.25;5013697;28;20029;-69
2021/05/21 00:29:36;;;;;;;2.35;0.73;;;;;;;12.98;48.87;100730.16;5013568;28;20109;-73
2021/05/21 00:32:01;;;;;;;0.85;0.75;;;;;;;13.09;48.56;100724.78;5013454;28;20056;-70
2021/05/21 00:34:27;;;;;;;4.45;0.70;;;;;;;13.05;48.24;100726.72;5013467;28;20030;-69
2021/05/21 00:36:53;;;;;;;0.85;0.70;;;;;;;12.99;49.15;100728.97;5013314;28;20364;-70
2021/05/21 00:39:22;;;;;;;0.70;0.70;;;;;;;13.08;48.35;100718.41;5013451;28;20065;-69
2021/05/21 00:41:47;;;;;;;1.38;0.90;;;;;;;13.07;48.49;100722.38;5013225;28;20030;-70
2021/05/21 00:44:14;;;;;;;0.65;0.65;;;;;;;13.02;48.51;100719.06;5013304;28;20022;-69
2021/05/21 00:46:39;;;;;;;0.63;0.63;;;;;;;12.96;48.54;100718.56;5013235;28;20120;-69
2021/05/21 00:49:05;;;;;;;0.75;0.75;;;;;;;12.84;48.44;100724.28;5013305;28;20111;-69
2021/05/21 00:51:32;;;;;;;0.60;0.60;;;;;;;12.77;49.20;100727.69;4996987;28;20022;-69
2021/05/21 00:53:58;;;;;;;0.70;0.70;;;;;;;12.89;49.85;100729.56;5012755;28;20028;-69
2021/05/21 00:56:25;;;;;;;0.43;0.43;;;;;;;12.83;49.82;100717.03;5014797;28;20022;-70
2021/05/21 00:58:50;;;;;;;0.95;0.50;;;;;;;12.78;48.68;100714.53;5012880;28;20349;-70
2021/05/21 01:01:16;;;;;;;0.70;0.70;;;;;;;12.74;48.26;100724.84;5013185;28;20108;-69
2021/05/21 01:03:42;;;;;;;0.68;0.68;;;;;;;12.69;49.20;100722.34;5012890;28;20060;-69
2021/05/21 01:06:08;;;;;;;0.90;0.85;;;;;;;12.63;49.84;100730.19;5012923;28;20022;-69
2021/05/21 01:08:35;;;;;;;1.25;0.90;;;;;;;12.71;49.48;100712.41;5012886;28;20030;-70
2021/05/21 01:11:01;;;;;;;0.93;0.60;;;;;;;12.68;49.48;100715.13;5012770;28;20057;-71
2021/05/21 01:13:26;;;;;;;0.82;0.50;;;;;;;12.60;49.57;100722.53;5012894;28;20025;-69
2021/05/21 01:15:52;;;;;;;0.52;0.52;;;;;;;12.63;49.54;100718.22;5012793;28;20036;-69
2021/05/21 01:18:18;;;;;;;0.90;0.90;;;;;;;12.64;49.26;100714.22;5012735;28;20077;-69
2021/05/21 01:20:43;;;;;;;0.50;0.50;;;;;;;12.61;47.49;100712.16;5012761;28;20022;-69
2021/05/21 01:23:09;;;;;;;0.88;0.45;;;;;;;12.62;45.89;100713.78;5012527;28;20029;-69
2021/05/21 01:25:36;;;;;;;0.70;0.70;;;;;;;12.62;47.22;100716.56;5012897;28;20365;-69
2021/05/21 01:28:05;;;;;;;0.70;0.68;;;;;;;12.65;49.96;100713.06;5012462;28;20038;-70
2021/05/21 01:30:31;;;;;;;0.75;0.70;;;;;;;12.79;49.42;100717.00;5012911;28;20021;-69
2021/05/21 01:33:06;;;;;;;0.88;0.60;;;;;;;12.70;49.48;100696.03;4980078;28;20449;-70
2021/05/21 01:35:32;;;;;;;1.90;0.80;;;;;;;12.71;48.80;100714.38;5012815;28;20464;-69
2021/05/21 01:37:57;;;;;;;0.63;0.63;;;;;;;12.63;50.65;100724.59;5012521;28;20047;-69
2021/05/21 01:40:24;;;;;;;1.05;0.60;;;;;;;12.54;50.91;100723.97;5012739;28;20349;-69
2021/05/21 01:42:50;;;;;;;0.98;0.80;;;;;;;12.62;49.97;100722.94;5012497;28;20495;-69
2021/05/21 01:45:16;;;;;;;0.57;0.57;;;;;;;12.61;49.84;100726.13;5012424;28;20057;-70
2021/05/21 01:47:41;;;;;;;0.65;0.55;;;;;;;12.48;49.95;100722.63;5012628;28;20113;-69
2021/05/21 01:50:10;;;;;;;0.98;0.52;;;;;;;12.59;50.12;100710.53;5012331;28;20365;-69
2021/05/21 01:52:37;;;;;;;0.55;0.55;;;;;;;12.63;49.99;100713.44;5012458;28;20026;-69
2021/05/21 01:55:03;;;;;;;0.57;0.57;;;;;;;12.57;50.44;100710.13;5012003;28;20072;-69
2021/05/21 01:57:29;;;;;;;0.50;0.50;;;;;;;12.51;50.59;100705.97;5012340;28;20037;-69
2021/05/21 01:59:55;;;;;;;0.60;0.60;;;;;;;12.50;50.37;100707.13;5011957;28;20030;-73
2021/05/21 02:02:20;;;;;;;0.90;0.70;;;;;;;12.18;50.54;100658.13;5012300;28;20092;-69
2021/05/21 02:04:46;;;;;;;2.03;0.68;;;;;;;12.47;50.93;100707.88;5012433;28;20427;-69
2021/05/21 02:07:13;;;;;;;0.70;0.70;;;;;;;12.45;51.37;100715.78;5012167;28;20404;-69
2021/05/21 02:10:00;;;;;;;0.60;0.60;;;;;;;12.32;51.00;100714.28;5012251;28;20468;-69
2021/05/21 02:12:28;;;;;;;0.60;0.60;;;;;;;12.30;51.42;100702.66;5016042;28;20026;-69
2021/05/21 02:14:55;;;;;;;1.15;0.70;;;;;;;12.34;51.66;100706.34;5017095;28;20029;-69
2021/05/21 02:17:24;;;;;;;0.68;0.60;;;;;;;12.24;50.56;100704.91;5015896;28;20026;-69
2021/05/21 02:19:51;;;;;;;0.60;0.60;;;;;;;12.29;50.91;100706.63;5015965;28;20036;-69
2021/05/21 02:22:19;;;;;;;0.32;0.32;;;;;;;12.28;51.46;100693.84;4999634;28;20088;-69
2021/05/21 02:24:45;;;;;;;0.75;0.50;;;;;;;12.28;51.06;100708.63;5016771;28;20468;-69
2021/05/21 02:27:11;;;;;;;0.93;0.93;;;;;;;12.35;51.13;100712.75;5015687;28;20045;-69
2021/05/21 02:29:40;;;;;;;1.30;1.20;;;;;;;12.19;50.69;100704.38;5015851;28;20034;-69
2021/05/21 02:32:06;;;;;;;3.75;1.73;;;;;;;12.24;50.55;100713.28;5015732;28;20026;-69
2021/05/21 02:34:32;;;;;;;3.35;1.48;;;;;;;12.13;51.32;100703.03;5015689;28;20076;-69
2021/05/21 02:36:58;;;;;;;2.90;2.70;;;;;;;12.16;51.42;100700.34;5015650;28;20026;-69
2021/05/21 02:39:24;;;;;;;2.10;1.98;;;;;;;12.18;52.44;100699.97;5015510;28;20030;-69
2021/05/21 02:41:49;;;;;;;1.30;1.20;;;;;;;12.18;51.84;100702.78;5015778;28;20522;-69
2021/05/21 02:44:15;;;;;;;1.02;0.90;;;;;;;12.17;51.28;100713.13;5015441;28;20460;-69
2021/05/21 02:46:41;;;;;;;1.40;1.30;;;;;;;12.14;51.76;100707.44;5015578;28;20450;-69
2021/05/21 02:49:06;;;;;;;6.82;2.13;;;;;;;12.06;51.69;100707.28;5015468;28;20040;-73
2021/05/21 02:51:32;;;;;;;1.80;1.52;;;;;;;12.07;51.96;100703.31;5015544;28;20029;-69
2021/05/21 02:53:58;;;;;;;1.42;1.33;;;;;;;11.79;51.93;100674.69;5015311;28;20029;-69
2021/05/21 02:56:23;;;;;;;2.83;2.63;;;;;;;12.05;51.67;100697.31;5015128;28;20021;-69
2021/05/21 02:58:49;;;;;;;2.60;2.40;;;;;;;12.11;51.46;100703.41;5015362;28;20034;-69
2021/05/21 03:01:14;;;;;;;4.82;1.20;;;;;;;12.10;51.48;100701.00;5015173;28;20469;-69
2021/05/21 03:03:40;;;;;;;0.90;0.90;;;;;;;12.03;50.48;100704.38;5015069;28;20030;-69
2021/05/21 03:06:05;;;;;;;1.23;1.13;;;;;;;11.94;50.93;100710.16;5015146;28;20030;-69
2021/05/21 03:08:31;;;;;;;1.25;1.20;;;;;;;11.90;52.04;100709.25;5014986;28;20117;-69
2021/05/21 03:10:58;;;;;;;1.42;1.27;;;;;;;11.90;52.35;100708.44;5015141;28;20380;-69
2021/05/21 03:13:26;;;;;;;2.00;1.70;;;;;;;11.87;51.81;100707.19;5015161;28;20038;-69
2021/05/21 03:15:52;;;;;;;1.90;1.60;;;;;;;11.84;52.67;100721.03;5014917;28;20026;-69
2021/05/21 03:18:22;;;;;;;1.65;1.17;;;;;;;11.76;53.29;100720.81;5014888;28;20028;-69
2021/05/21 03:20:48;;;;;;;1.35;1.27;;;;;;;11.81;52.07;100711.38;5016162;28;20528;-69
2021/05/21 03:23:14;;;;;;;1.40;1.30;;;;;;;11.69;52.88;100717.84;4997142;28;20392;-70
2021/05/21 03:25:41;;;;;;;1.48;1.38;;;;;;;11.69;52.40;100703.09;5014653;28;20018;-69
2021/05/21 03:28:07;;;;;;;4.05;1.60;;;;;;;11.60;52.63;100705.22;5016198;28;20028;-69
2021/05/21 03:30:33;;;;;;;2.55;2.25;;;;;;;11.74;52.93;100716.78;5014571;28;20376;-69
2021/05/21 03:32:59;;;;;;;1.85;1.75;;;;;;;11.78;52.37;100703.75;5014543;28;20033;-69
2021/05/21 03:35:24;;;;;;;3.28;2.50;;;;;;;11.83;52.34;100720.25;5014419;28;20022;-69
2021/05/21 03:37:50;;;;;;;2.70;2.25;;;;;;;11.79;52.52;100719.28;5014493;28;20025;-69
2021/05/21 03:40:16;;;;;;;2.42;2.10;;;;;;;11.80;51.49;100709.75;5014386;28;20028;-72
2021/05/21 03:42:41;;;;;;;2.25;1.70;;;;;;;11.78;51.46;100712.91;5014359;28;20125;-70
2021/05/21 03:45:08;;;;;;;4.25;3.65;;;;;;;11.78;50.99;100717.69;5014385;28;20021;-69
2021/05/21 03:47:34;;;;;;;7.93;6.05;;;;;;;11.63;51.55;100710.91;5014139;28;20033;-69
2021/05/21 03:50:01;;;;;;;13.82;11.63;;;;;;;11.55;51.74;100712.69;5014465;28;20030;-69
2021/05/21 03:52:26;;;;;;;12.13;10.50;;;;;;;11.63;51.88;100710.91;5014009;28;20523;-69
2021/05/21 03:54:52;;;;;;;7.93;6.25;;;;;;;11.51;52.43;100717.38;5013705;28;20054;-69
2021/05/21 03:57:19;;;;;;;4.53;3.33;;;;;;;11.64;50.75;100711.72;5014294;28;20022;-69
2021/05/21 03:59:45;;;;;;;7.60;5.03;;;;;;;11.70;51.32;100713.06;5013988;28;20103;-69
2021/05/21 04:02:11;;;;;;;5.97;5.40;;;;;;;11.66;50.71;100717.72;5014086;28;20460;-69
2021/05/21 04:04:40;;;;;;;4.55;4.15;;;;;;;11.79;50.80;100719.28;4997051;28;20064;-70
2021/05/21 04:07:06;;;;;;;2.72;2.17;;;;;;;12.10;50.44;100723.31;5013970;28;20026;-70
2021/05/21 04:09:32;;;;;;;2.10;1.90;;;;;;;13.04;47.33;100725.88;5014764;28;20030;-70
2021/05/21 04:11:58;;;;;;;1.80;1.70;;;;;;;13.87;46.06;100719.97;5015497;28;20033;-70
2021/05/21 04:14:23;;;;;;;1.63;1.00;;;;;;;14.62;44.38;100730.44;5013748;28;20487;-73
2021/05/21 04:16:49;;;;;;;1.10;1.00;;;;;;;15.28;43.00;100727.31;5013803;28;20030;-70
2021/05/21 04:19:14;;;;;;;3.17;0.85;;;;;;;16.03;41.34;100726.16;5014738;28;20060;-70
2021/05/21 04:21:40;;;;;;;2.40;0.70;;;;;;;16.49;39.93;100731.38;5013584;28;20021;-70
2021/05/21 04:24:07;;;;;;;0.50;0.45;;;;;;;16.88;39.32;100742.09;5013599;28;20048;-70
2021/05/21 04:26:33;;;;;;;0.70;0.70;;;;;;;17.21;39.07;100739.06;5013418;28;20026;-68
2021/05/21 04:28:58;;;;;;;0.63;0.63;;;;;;;17.59;38.06;100745.25;5013090;28;20017;-69
2021/05/21 04:31:24;;;;;;;1.05;0.70;;;;;;;17.91;37.77;100748.16;5013659;28;20030;-69
2021/05/21 04:33:51;;;;;;;0.60;0.60;;;;;;;18.37;37.69;100752.22;5012929;28;20080;-68
2021/05/21 04:36:17;;;;;;;3.13;1.00;;;;;;;18.83;36.47;100755.84;5013228;28;20028;-69
2021/05/21 04:38:43;;;;;;;0.90;0.70;;;;;;;19.40;35.63;100756.91;5014294;28;20034;-69
2021/05/21 04:41:08;;;;;;;0.70;0.55;;;;;;;20.05;34.09;100761.00;5013132;28;20056;-69
2021/05/21 04:43:34;;;;;;;0.63;0.63;;;;;;;20.46;33.31;100749.00;5012885;28;20026;-69
2021/05/21 04:46:04;;;;;;;1.40;0.73;;;;;;;20.91;32.81;100755.44;5012776;28;20029;-69
2021/05/21 04:48:30;;;;;;;0.70;0.70;;;;;;;21.25;32.71;100751.81;5012818;28;20026;-69
2021/05/21 04:50:57;;;;;;;0.93;0.88;;;;;;;21.52;31.90;100758.41;5012937;28;20025;-69
2021/05/21 04:53:24;;;;;;;0.80;0.70;;;;;;;21.98;30.96;100754.13;5013258;28;20120;-69
2021/05/21 04:55:49;;;;;;;1.55;0.82;;;;;;;22.21;30.81;100753.38;5012234;28;20115;-69
2021/05/21 04:58:16;;;;;;;1.60;1.05;;;;;;;22.63;29.70;100762.41;5012814;28;20029;-69
2021/05/21 05:00:42;;;;;;;2.40;0.82;;;;;;;22.95;28.57;100748.47;5012688;28;20022;-70
2021/05/21 05:03:13;;;;;;;1.85;0.85;;;;;;;22.98;29.02;100753.28;4996149;28;20026;-69
2021/05/21 05:05:39;;;;;;;1.27;0.70;;;;;;;23.32;27.43;100759.94;5012602;28;20183;-69
2021/05/21 05:08:05;;;;;;;3.80;1.00;;;;;;;23.56;27.61;100761.47;5012665;28;20462;-70
2021/05/21 05:10:31;;;;;;;9.10;1.45;;;;;;;23.73;26.45;100768.03;5012647;28;20029;-69
2021/05/21 05:12:57;;;;;;;3.33;1.17;;;;;;;23.95;26.03;100762.66;5011633;28;20369;-69
2021/05/21 05:15:23;;;;;;;4.20;1.45;;;;;;;24.56;25.54;100765.69;5014060;28;20032;-69
2021/05/21 05:17:49;;;;;;;1.40;0.90;;;;;;;24.78;25.54;100765.13;5012309;28;20025;-70
2021/05/21 05:20:16;;;;;;;2.25;0.80;;;;;;;24.79;24.57;100772.41;5012475;28;20048;-69
2021/05/21 05:22:42;;;;;;;1.88;0.70;;;;;;;25.05;23.22;100764.81;5012651;28;20160;-70
2021/05/21 05:25:09;;;;;;;0.80;0.70;;;;;;;25.41;22.65;100756.09;5013574;28;20443;-70
2021/05/21 05:27:35;;;;;;;1.00;0.90;;;;;;;25.35;22.47;100763.56;5012350;28;20032;-70
2021/05/21 05:30:03;;;;;;;2.17;0.60;;;;;;;25.70;22.22;100760.94;5012187;28;20452;-69
2021/05/21 05:32:28;;;;;;;0.98;0.98;;;;;;;25.73;21.82;100765.72;5012256;28;20109;-69
2021/05/21 05:34:54;;;;;;;1.02;0.90;;;;;;;25.85;22.12;100770.66;5012069;28;20113;-70
2021/05/21 05:37:20;;;;;;;1.83;0.80;;;;;;;26.20;22.12;100776.50;5012462;28;20400;-69
2021/05/21 05:39:45;;;;;;;2.80;0.80;;;;;;;26.27;22.05;100781.97;5012178;28;20116;-70
2021/05/21 05:42:11;;;;;;;0.85;0.85;;;;;;;26.16;21.93;100776.63;5012118;28;20441;-69
2021/05/21 05:44:36;;;;;;;1.38;0.90;;;;;;;26.23;22.62;100775.59;5011874;28;20356;-71
2021/05/21 05:47:02;;;;;;;6.03;1.20;;;;;;;26.17;22.96;100778.22;5016233;28;20423;-73
2021/05/21 05:49:28;;;;;;;0.70;0.70;;;;;;;25.92;21.65;100778.19;5016324;28;20361;-71
2021/05/21 05:51:53;;;;;;;0.73;0.60;;;;;;;25.82;20.67;100780.13;5016202;28;20117;-72
2021/05/21 05:54:19;;;;;;;5.13;0.65;;;;;;;25.54;22.59;100776.84;5015873;28;20485;-72
2021/05/21 05:56:44;;;;;;;3.15;1.00;;;;;;;25.80;24.24;100777.72;5016101;28;20057;-72
2021/05/21 05:59:10;;;;;;;1.17;0.80;;;;;;;26.48;21.74;100787.00;5016009;28;20072;-72
2021/05/21 06:01:35;;;;;;;0.50;0.50;;;;;;;26.76;20.53;100785.25;5015978;28;20512;-72
2021/05/21 06:04:01;;;;;;;0.98;0.50;;;;;;;26.23;20.48;100782.09;5015691;28;20041;-72
2021/05/21 06:06:27;;;;;;;0.40;0.40;;;;;;;26.66;20.56;100779.91;5015941;28;20040;-72
2021/05/21 06:08:52;;;;;;;0.70;0.63;;;;;;;26.68;21.49;100777.38;5016068;28;20104;-72
2021/05/21 06:11:18;;;;;;;0.40;0.40;;;;;;;27.38;19.80;100784.72;5015919;28;20021;-72
2021/05/21 06:13:44;;;;;;;0.55;0.55;;;;;;;26.60;20.31;100780.47;5015351;28;20120;-71
2021/05/21 06:16:09;;;;;;;1.77;0.60;;;;;;;26.17;20.23;100788.81;5015918;28;20061;-72
2021/05/21 06:18:35;;;;;;;0.52;0.52;;;;;;;26.30;21.11;100787.56;5015852;28;20469;-72
2021/05/21 06:21:00;;;;;;;0.63;0.50;;;;;;;25.37;21.11;100789.56;5015456;28;20061;-73
2021/05/21 06:23:26;;;;;;;0.50;0.50;;;;;;;24.88;22.29;100798.19;5015468;28;20054;-72
2021/05/21 06:25:57;;;;;;;0.60;0.60;;;;;;;24.84;21.51;100797.50;5015264;28;20060;-73
2021/05/21 06:28:23;;;;;;;0.70;0.60;;;;;;;24.86;22.29;100800.66;5015110;28;20029;-72
2021/05/21 06:30:50;;;;;;;3.17;0.90;;;;;;;24.43;23.51;100801.75;5015002;28;20025;-72
2021/05/21 06:33:17;;;;;;;1.08;0.95;;;;;;;24.77;21.71;100806.22;5014169;28;20041;-73
2021/05/21 06:35:42;;;;;;;1.95;0.95;;;;;;;25.59;21.68;100789.75;5014250;28;20021;-73
2021/05/21 06:38:11;;;;;;;0.80;0.80;;;;;;;25.91;22.35;100805.91;5014463;28;20034;-73
2021/05/21 06:40:37;;;;;;;1.83;1.10;;;;;;;25.89;22.32;100802.72;5016273;28;20072;-74
2021/05/21 06:43:10;;;;;;;1.52;1.20;;;;;;;26.03;22.24;100807.97;5016374;28;20030;-73
2021/05/21 06:45:37;;;;;;;2.20;1.70;;;;;;;26.09;22.92;100813.91;5015128;28;20025;-72
2021/05/21 06:48:03;;;;;;;3.03;1.55;;;;;;;25.15;23.41;100799.97;5015970;28;20172;-72
2021/05/21 06:50:29;;;;;;;1.50;1.40;;;;;;;25.88;22.55;100812.50;5014981;28;20337;-72
2021/05/21 06:52:55;;;;;;;2.95;1.80;;;;;;;25.22;22.28;100811.13;5014945;28;20045;-72
2021/05/21 06:55:20;;;;;;;2.20;1.27;;;;;;;25.81;21.81;100815.56;5014318;28;20499;-72
2021/05/21 06:57:46;;;;;;;1.40;1.30;;;;;;;25.89;22.34;100816.16;5014654;28;20364;-72
2021/05/21 07:00:12;;;;;;;1.05;0.95;;;;;;;25.84;23.29;100823.22;5013761;28;20397;-71
2021/05/21 07:02:37;;;;;;;2.58;1.15;;;;;;;25.38;22.94;100813.16;5013617;28;20483;-71
2021/05/21 07:05:06;;;;;;;0.95;0.88;;;;;;;25.52;22.24;100819.25;5013798;28;20061;-72
2021/05/21 07:07:32;;;;;;;0.93;0.90;;;;;;;25.65;21.61;100816.41;5014626;28;20025;-72
2021/05/21 07:09:59;;;;;;;1.02;1.00;;;;;;;25.50;21.52;100815.22;5014157;28;20026;-72
2021/05/21 07:12:25;;;;;;;0.68;0.60;;;;;;;24.85;21.06;100819.00;5015455;28;20432;-72
2021/05/21 07:14:51;;;;;;;0.35;0.35;;;;;;;25.13;20.36;100825.22;5014532;28;20472;-72
2021/05/21 07:17:16;;;;;;;1.25;0.57;;;;;;;25.41;19.51;100820.78;5014316;28;20018;-72
2021/05/21 07:19:42;;;;;;;0.35;0.35;;;;;;;25.77;19.45;100820.56;5014551;28;20116;-72
2021/05/21 07:22:08;;;;;;;0.50;0.50;;;;;;;25.17;20.28;100825.94;5014150;28;20095;-72
2021/05/21 07:24:34;;;;;;;0.52;0.52;;;;;;;25.25;20.12;100818.81;5014292;28;20041;-72
2021/05/21 07:27:00;;;;;;;1.45;0.50;;;;;;;25.23;20.07;100824.13;5014470;28;20022;-72
2021/05/21 07:29:25;;;;;;;0.52;0.52;;;;;;;25.50;20.10;100813.19;5014207;28;20026;-72
2021/05/21 07:31:51;;;;;;;0.88;0.40;;;;;;;25.13;19.76;100816.66;5014431;28;20468;-72
2021/05/21 07:34:17;;;;;;;0.60;0.50;;;;;;;25.33;19.89;100818.13;5013890;28;20057;-72
2021/05/21 07:36:42;;;;;;;2.05;0.43;;;;;;;25.14;20.07;100804.84;5014175;28;20430;-72
2021/05/21 07:39:08;;;;;;;0.50;0.50;;;;;;;26.08;20.29;100818.81;5014161;28;20017;-73
2021/05/21 07:41:33;;;;;;;4.35;1.00;;;;;;;25.98;20.06;100814.22;5014066;28;20132;-71
2021/05/21 07:44:01;;;;;;;1.50;0.77;;;;;;;25.87;20.05;100816.63;5013771;28;20386;-71
2021/05/21 07:46:28;;;;;;;0.68;0.60;;;;;;;25.93;20.15;100814.00;5014099;28;20476;-72
2021/05/21 07:48:56;;;;;;;1.98;0.70;;;;;;;26.16;20.05;100816.53;5013997;28;20083;-72
2021/05/21 07:51:21;;;;;;;1.70;0.73;;;;;;;26.41;19.41;100815.72;5014971;28;20022;-71
2021/05/21 07:53:48;;;;;;;0.60;0.60;;;;;;;26.98;19.30;100822.41;5013753;28;20345;-72
2021/05/21 07:56:14;;;;;;;1.65;0.50;;;;;;;27.44;18.45;100819.19;5014902;28;20074;-72
2021/05/21 07:58:40;;;;;;;0.60;0.60;;;;;;;28.13;17.72;100816.19;5013924;28;20411;-71
2021/05/21 08:01:06;;;;;;;1.88;0.60;;;;;;;29.02;17.00;100826.81;5013769;28;20163;-72
2021/05/21 08:03:31;;;;;;;0.60;0.60;;;;;;;28.56;16.94;100820.97;5013617;28;20112;-72
2021/05/21 08:06:01;;;;;;;0.47;0.40;;;;;;;28.26;16.57;100825.44;5013630;28;20369;-72
2021/05/21 08:08:27;;;;;;;0.73;0.60;;;;;;;27.49;16.63;100825.13;5012892;28;20057;-72
2021/05/21 08:10:56;;;;;;;5.82;1.00;;;;;;;28.14;17.35;100815.69;5013772;28;20056;-72
2021/05/21 08:13:26;;;;;;;0.55;0.55;;;;;;;28.73;16.65;100829.31;5014740;28;20037;-72
2021/05/21 08:15:52;;;;;;;0.70;0.70;;;;;;;28.46;15.64;100825.09;5014623;28;20045;-71
2021/05/21 08:18:18;;;;;;;0.93;0.50;;;;;;;28.52;16.11;100828.13;5013635;28;20025;-72
2021/05/21 08:20:44;;;;;;;0.50;0.50;;;;;;;28.09;16.61;100816.31;5013393;28;20117;-71
2021/05/21 08:23:14;;;;;;;0.65;0.60;;;;;;;28.22;16.30;100829.72;5014685;28;20040;-71
2021/05/21 08:25:41;;;;;;;0.60;0.60;;;;;;;28.68;16.05;100828.66;5013051;28;20101;-72
2021/05/21 08:28:06;;;;;;;0.52;0.50;;;;;;;29.42;15.95;100828.75;5013514;28;20457;-72
2021/05/21 08:30:35;;;;;;;0.50;0.50;;;;;;;29.95;14.82;100837.00;5012783;28;20167;-72
2021/05/21 08:33:01;;;;;;;0.50;0.50;;;;;;;29.47;13.77;100814.59;5014293;28;20021;-71
2021/05/21 08:35:26;;;;;;;1.77;0.52;;;;;;;29.02;14.98;100832.56;5012825;28;20115;-71
2021/05/21 08:37:53;;;;;;;0.95;0.68;;;;;;;29.18;16.09;100837.97;5013025;28;20026;-71
2021/05/21 08:40:23;;;;;;;1.20;0.68;;;;;;;28.45;16.25;100837.81;5012829;28;20022;-79
2021/05/21 08:42:57;;;;;;;4.03;0.90;;;;;;;29.07;16.70;100837.66;5012713;28;20030;-71
2021/05/21 08:45:24;;;;;;;0.50;0.50;;;;;;;28.98;16.14;100834.78;5012840;28;20034;-72
2021/05/21 08:47:50;;;;;;;0.73;0.73;;;;;;;29.41;17.77;100827.97;5013916;28;20040;-71
2021/05/21 08:50:19;;;;;;;1.88;0.90;;;;;;;29.40;18.43;100832.13;5012740;28;20033;-71
2021/05/21 08:52:46;;;;;;;1.15;0.77;;;;;;;28.53;19.98;100813.34;5012573;28;20026;-71
2021/05/21 08:55:12;;;;;;;1.67;0.85;;;;;;;28.56;20.30;100811.59;5013523;28;20045;-71
2021/05/21 08:57:38;;;;;;;1.75;0.65;;;;;;;27.96;20.70;100809.88;5012469;28;20029;-70
2021/05/21 09:00:05;;;;;;;1.20;0.75;;;;;;;28.35;20.65;100811.22;5012575;28;20084;-71
2021/05/21 09:02:33;;;;;;;0.90;0.77;;;;;;;28.46;20.38;100805.06;5012432;28;20060;-72
2021/05/21 09:04:59;;;;;;;2.63;0.82;;;;;;;27.66;20.74;100812.22;5012272;28;20476;-71
2021/05/21 09:07:33;;;;;;;1.00;0.70;;;;;;;26.99;21.07;100814.63;5012452;28;20018;-72
2021/05/21 09:10:15;;;;;;;1.40;1.23;;;;;;;27.27;21.39;100813.69;5012593;28;20465;-71
2021/05/21 09:12:49;;;;;;;0.70;0.70;;;;;;;28.27;19.97;100815.59;5012790;28;20104;-71
2021/05/21 09:15:20;;;;;;;0.60;0.60;;;;;;;28.28;19.85;100811.44;5013881;28;20033;-71
2021/05/21 09:17:56;;;;;;;3.40;0.80;;;;;;;28.08;20.47;100803.28;5012392;28;20026;-71
2021/05/21 09:20:31;;;;;;;3.03;1.08;;;;;;;26.79;21.41;100812.06;5013440;28;20029;-71
2021/05/21 09:23:08;;;;;;;1.65;0.75;;;;;;;28.12;20.41;100803.13;5012372;28;20056;-71
2021/05/21 09:25:51;;;;;;;1.40;0.70;;;;;;;27.59;20.81;100806.78;5012306;28;20028;-71
2021/05/21 09:28:37;;;;;;;0.50;0.50;;;;;;;26.81;20.84;100801.00;5012380;28;20022;-71
2021/05/21 09:31:12;;;;;;;1.13;0.70;;;;;;;27.90;20.23;100800.31;5012519;28;20468;-71
2021/05/21 09:33:40;;;;;;;1.10;0.73;;;;;;;28.73;18.87;100806.38;5012200;28;20037;-72
2021/05/21 09:36:06;;;;;;;2.15;0.95;;;;;;;28.81;18.63;100807.66;5012247;28;20160;-72
2021/05/21 09:38:49;;;;;;;0.70;0.70;;;;;;;28.38;19.02;100810.25;5011993;28;20029;-73
2021/05/21 09:41:15;;;;;;;0.65;0.65;;;;;;;27.81;20.07;100800.28;5012209;28;20030;-71
2021/05/21 09:43:41;;;;;;;0.63;0.63;;;;;;;27.82;20.11;100802.66;5011897;28;20097;-71
2021/05/21 09:46:10;;;;;;;0.65;0.65;;;;;;;27.37;20.50;100805.94;5012157;28;20026;-71
2021/05/21 09:48:36;;;;;;;2.28;0.75;;;;;;;26.35;21.54;100794.75;5012013;28;20018;-71
2021/05/21 09:51:03;;;;;;;1.38;0.73;;;;;;;27.15;20.86;100794.50;5012235;28;20026;-71
2021/05/21 09:53:32;;;;;;;0.63;0.50;;;;;;;26.58;21.14;100791.56;5012126;28;20048;-71
2021/05/21 09:56:05;;;;;;;1.27;0.60;;;;;;;26.79;20.53;100800.63;5012842;28;20041;-71
2021/05/21 09:58:36;;;;;;;1.95;0.60;;;;;;;26.60;19.75;100782.53;5013033;28;20490;-71
2021/05/21 10:01:24;;;;;;;0.88;0.88;;;;;;;25.74;20.49;100788.09;5011781;28;20036;-70
2021/05/21 10:03:55;;;;;;;0.50;0.50;;;;;;;26.56;19.40;100796.13;5012001;28;20084;-70
2021/05/21 10:06:30;;;;;;;0.75;0.60;;;;;;;26.46;19.62;100800.13;5012075;28;20034;-70
2021/05/21 10:08:58;;;;;;;1.15;0.65;;;;;;;26.32;19.87;100795.66;5011817;28;20061;-70
2021/05/21 10:11:24;;;;;;;0.70;0.70;;;;;;;26.73;19.82;100802.47;5013198;28;20029;-69
2021/05/21 10:13:50;;;;;;;1.17;0.50;;;;;;;26.38;19.48;100796.69;5011447;28;20029;-69
2021/05/21 10:16:18;;;;;;;1.63;0.77;;;;;;;25.71;19.67;100788.97;5012066;28;20022;-70
2021/05/21 10:18:48;;;;;;;0.73;0.57;;;;;;;26.30;19.22;100803.88;5011687;28;20018;-71
2021/05/21 10:21:15;;;;;;;1.58;0.50;;;;;;;27.15;18.64;100803.88;5012011;28;20427;-69
2021/05/21 10:23:46;;;;;;;1.73;1.42;;;;;;;27.35;17.96;100797.84;5011655;28;20149;-72
2021/05/21 10:26:27;;;;;;;0.50;0.50;;;;;;;26.97;18.46;100783.69;5011688;28;20345;-70
2021/05/21 10:28:58;;;;;;;0.60;0.50;;;;;;;26.68;19.40;100778.16;5011564;28;20055;-70
2021/05/21 10:31:23;;;;;;;4.35;0.80;;;;;;;26.56;19.19;100776.94;5013104;28;20026;-70
2021/05/21 10:34:09;;;;;;;0.45;0.32;;;;;;;26.95;18.21;100774.00;5015344;28;20040;-70
2021/05/21 10:36:35;;;;;;;1.95;0.60;;;;;;;27.22;17.45;100765.72;5015096;28;20033;-70
2021/05/21 10:39:06;;;;;;;0.65;0.65;;;;;;;26.67;17.80;100764.38;5015146;28;20025;-70
2021/05/21 10:41:34;;;;;;;0.43;0.30;;;;;;;25.93;18.48;100763.47;5014974;28;20048;-69
2021/05/21 10:44:00;;;;;;;0.40;0.40;;;;;;;25.61;18.56;100770.94;4998341;28;20041;-70
2021/05/21 10:46:27;;;;;;;0.30;0.30;;;;;;;26.31;18.25;100762.69;5015037;28;20376;-70
2021/05/21 10:49:03;;;;;;;0.40;0.40;;;;;;;26.01;18.82;100764.88;5014126;28;20026;-70
2021/05/21 10:51:48;;;;;;;0.40;0.40;;;;;;;25.00;19.07;100776.72;5014365;28;20096;-70
2021/05/21 10:54:26;;;;;;;0.60;0.30;;;;;;;24.67;18.71;100776.00;5014589;28;20135;-69
2021/05/21 10:56:55;;;;;;;0.40;0.40;;;;;;;25.03;19.18;100770.13;5014541;28;20022;-70
2021/05/21 10:59:39;;;;;;;0.57;0.57;;;;;;;25.90;18.66;100772.97;5014867;28;20532;-69
2021/05/21 11:02:04;;;;;;;1.13;1.02;;;;;;;26.34;19.41;100782.53;5014968;28;20059;-69
2021/05/21 11:04:30;;;;;;;1.55;0.90;;;;;;;26.80;18.70;100782.28;5014828;28;20116;-69
2021/05/21 11:06:56;;;;;;;0.75;0.70;;;;;;;25.94;19.48;100776.50;4998062;28;20112;-70
2021/05/21 11:09:24;;;;;;;2.72;0.80;;;;;;;26.41;18.93;100767.22;5014490;28;20532;-69
2021/05/21 11:12:08;;;;;;;0.90;0.73;;;;;;;25.77;19.58;100770.06;5015465;28;20022;-70
2021/05/21 11:14:33;;;;;;;1.27;0.32;;;;;;;25.40;19.76;100768.72;5014377;28;20188;-69
2021/05/21 11:17:15;;;;;;;0.80;0.40;;;;;;;25.20;21.05;100756.69;5014387;28;20488;-69
2021/05/21 11:19:50;;;;;;;0.65;0.60;;;;;;;25.17;21.20;100757.59;5014351;28;20036;-69
2021/05/21 11:22:17;;;;;;;1.00;0.85;;;;;;;25.25;20.88;100741.91;5015419;28;20372;-69
2021/05/21 11:24:45;;;;;;;1.25;0.82;;;;;;;25.35;21.18;100757.88;5014218;28;20026;-70